createdAt,value
2023-04-03T00:04:31.343Z,1.13
2023-04-03T00:09:34.589Z,0.90
2023-04-03T00:14:37.881Z,1.40
2023-04-03T00:19:42.817Z,1.33
2023-04-03T00:24:46.550Z,1.50
2023-04-03T00:29:50.062Z,0.90
2023-04-03T00:34:54.668Z,0.90
2023-04-03T00:39:57.973Z,1.00
2023-04-03T00:45:41.503Z,1.13
2023-04-03T00:50:47.395Z,1.17
2023-04-03T00:55:53.133Z,1.15
2023-04-03T01:06:03.961Z,1.15
2023-04-03T01:11:07.336Z,1.10
2023-04-03T01:16:11.424Z,1.63
2023-04-03T01:21:56.725Z,1.50
2023-04-03T01:27:00.519Z,1.30
2023-04-03T01:32:06.522Z,1.00
2023-04-03T01:37:09.979Z,1.05
2023-04-03T01:42:13.410Z,1.25
2023-04-03T01:47:21.696Z,0.77
2023-04-03T01:52:25.157Z,1.10
2023-04-03T01:57:28.542Z,1.15
2023-04-03T02:02:33.569Z,0.95
2023-04-03T02:07:37.007Z,0.75
2023-04-03T02:12:40.339Z,1.17
2023-04-03T02:17:45.409Z,1.27
2023-04-03T02:22:50.641Z,1.05
2023-04-03T02:27:55.221Z,1.27
2023-04-03T02:32:59.916Z,0.82
2023-04-03T02:43:07.091Z,1.02
2023-04-03T02:48:13.051Z,1.23
2023-04-03T02:53:16.452Z,1.13
2023-04-03T02:58:20.490Z,0.85
2023-04-03T03:03:25.658Z,1.48
2023-04-03T03:08:29.400Z,1.10
2023-04-03T03:13:33.984Z,1.27
2023-04-03T03:18:39.342Z,0.80
2023-04-03T03:23:42.800Z,0.95
2023-04-03T03:28:46.575Z,0.90
2023-04-03T03:33:51.653Z,1.17
2023-04-03T03:38:55.968Z,1.10
2023-04-03T03:43:59.281Z,1.35
2023-04-03T03:54:09.955Z,1.67
2023-04-03T03:59:14.561Z,1.30
2023-04-03T04:04:20.118Z,1.50
2023-04-03T04:09:23.721Z,2.03
2023-04-03T04:14:27.539Z,1.23
2023-04-03T04:19:32.739Z,1.52
2023-04-03T04:24:37.891Z,1.23
2023-04-03T04:29:41.698Z,1.45
2023-04-03T04:34:46.957Z,4.55
2023-04-03T04:39:50.465Z,5.60
2023-04-03T04:44:53.805Z,12.20
2023-04-03T04:49:58.618Z,15.10
2023-04-03T05:00:07.584Z,7.88
2023-04-03T05:05:12.769Z,7.50
2023-04-03T05:10:16.753Z,12.57
2023-04-03T05:15:22.387Z,9.13
2023-04-03T05:20:27.542Z,5.97
2023-04-03T05:25:31.798Z,5.82
2023-04-03T05:30:35.998Z,10.88
2023-04-03T05:35:42.499Z,7.35
2023-04-03T05:40:49.188Z,4.15
2023-04-03T05:45:53.978Z,4.28
2023-04-03T05:51:01.139Z,8.07
2023-04-03T05:56:04.518Z,5.80
2023-04-03T06:01:12.731Z,3.67
2023-04-03T06:06:18.488Z,4.80
2023-04-03T06:11:22.600Z,3.17
2023-04-03T06:16:26.262Z,4.45
2023-04-03T06:21:31.594Z,4.07
2023-04-03T06:26:34.919Z,5.82
2023-04-03T06:31:38.566Z,9.18
2023-04-03T06:36:43.657Z,8.88
2023-04-03T06:41:46.913Z,9.20
2023-04-03T06:46:50.565Z,7.30
2023-04-03T06:51:55.752Z,5.32
2023-04-03T06:56:59.066Z,8.63
2023-04-03T07:02:02.422Z,6.65
2023-04-03T07:07:07.109Z,5.32
2023-04-03T07:12:10.322Z,3.30
2023-04-03T07:17:13.554Z,2.08
2023-04-03T07:22:18.152Z,2.28
2023-04-03T07:27:21.415Z,3.53
2023-04-03T07:32:24.586Z,1.83
2023-04-03T07:37:29.271Z,2.72
2023-04-03T07:42:32.611Z,1.90
2023-04-03T07:47:36.189Z,2.67
2023-04-03T07:52:40.749Z,4.47
2023-04-03T07:57:44.566Z,1.58
2023-04-03T08:02:51.440Z,1.83
2023-04-03T08:07:56.449Z,1.63
2023-04-03T08:13:00.120Z,1.85
2023-04-03T08:18:05.022Z,1.73
2023-04-03T08:23:10.545Z,1.40
2023-04-03T08:28:14.687Z,2.33
2023-04-03T08:33:18.198Z,1.17
2023-04-03T08:38:23.098Z,2.00
2023-04-03T08:43:38.788Z,1.17
2023-04-03T08:48:44.691Z,3.80
2023-04-03T08:53:57.320Z,1.13
2023-04-03T08:59:06.188Z,0.80
2023-04-03T09:04:14.228Z,0.65
2023-04-03T09:09:32.864Z,0.63
2023-04-03T09:14:40.468Z,0.45
2023-04-03T09:19:53.938Z,1.33
2023-04-03T09:25:03.670Z,1.08
2023-04-03T09:30:10.162Z,0.98
2023-04-03T09:35:27.412Z,0.70
2023-04-03T09:40:43.333Z,1.30
2023-04-03T09:45:48.636Z,0.40
2023-04-03T09:51:04.531Z,0.70
2023-04-03T09:56:23.304Z,1.02
2023-04-03T10:01:30.719Z,0.70
2023-04-03T10:06:36.858Z,1.60
2023-04-03T10:12:02.633Z,0.90
2023-04-03T10:17:21.063Z,0.80
2023-04-03T10:22:31.270Z,0.80
2023-04-03T10:27:55.739Z,0.80
2023-04-03T10:33:20.456Z,0.75
2023-04-03T10:38:32.254Z,0.90
2023-04-03T10:43:45.716Z,0.60
2023-04-03T10:49:01.232Z,0.88
2023-04-03T10:54:13.934Z,1.25
2023-04-03T10:59:30.316Z,1.38
2023-04-03T11:04:38.521Z,1.40
2023-04-03T11:09:45.154Z,1.33
2023-04-03T11:14:52.700Z,1.00
2023-04-03T11:20:08.102Z,1.25
2023-04-03T11:25:23.290Z,1.27
2023-04-03T11:30:32.780Z,1.42
2023-04-03T11:35:37.399Z,1.42
2023-04-03T11:40:42.137Z,1.27
2023-04-03T11:45:57.295Z,0.90
2023-04-03T11:51:01.957Z,0.93
2023-04-03T11:56:33.332Z,0.90
2023-04-03T12:01:49.301Z,1.00
2023-04-03T12:07:05.284Z,0.98
2023-04-03T12:12:30.524Z,1.10
2023-04-03T12:17:36.333Z,1.00
2023-04-03T12:22:39.946Z,1.23
2023-04-03T12:27:44.918Z,0.80
2023-04-03T12:33:13.716Z,0.70
2023-04-03T12:38:54.279Z,1.00
2023-04-03T12:44:11.804Z,0.93
2023-04-03T12:49:29.008Z,0.80
2023-04-03T12:54:37.544Z,1.17
2023-04-03T12:59:42.143Z,0.95
2023-04-03T13:04:48.038Z,1.20
2023-04-03T13:10:00.445Z,0.80
2023-04-03T13:15:17.216Z,0.80
2023-04-03T13:20:26.466Z,1.25
2023-04-03T13:25:33.905Z,0.85
2023-04-03T13:30:40.378Z,0.85
2023-04-03T13:35:46.048Z,1.02
2023-04-03T13:40:51.501Z,0.68
2023-04-03T13:46:07.413Z,1.05
2023-04-03T13:51:23.776Z,1.08
2023-04-03T13:56:33.027Z,0.77
2023-04-03T14:01:44.060Z,1.20
2023-04-03T14:06:49.838Z,1.20
2023-04-03T14:11:56.734Z,0.90
2023-04-03T14:17:02.303Z,0.93
2023-04-03T14:27:22.947Z,1.05
2023-04-03T14:32:27.652Z,1.20
2023-04-03T14:37:33.738Z,1.30
2023-04-03T14:42:39.372Z,0.80
2023-04-03T14:52:51.724Z,0.73
2023-04-03T14:57:55.944Z,0.82
2023-04-03T15:02:59.673Z,0.65
2023-04-03T15:08:04.580Z,0.80
2023-04-03T15:13:08.325Z,0.60
2023-04-03T15:18:17.799Z,1.00
2023-04-03T15:23:27.100Z,1.10
2023-04-03T15:28:33.565Z,1.10
2023-04-03T15:33:38.211Z,1.60
2023-04-03T15:38:43.359Z,1.00
2023-04-03T15:43:47.123Z,1.02
2023-04-03T15:48:51.037Z,1.23
2023-04-03T15:53:56.222Z,1.00
2023-04-03T15:58:59.800Z,0.90
2023-04-03T16:04:03.803Z,0.98
2023-04-03T16:09:09.481Z,0.93
2023-04-03T16:14:13.289Z,1.80
2023-04-03T16:19:17.012Z,1.00
2023-04-03T16:24:22.211Z,1.10
2023-04-03T16:29:25.798Z,1.10
2023-04-03T16:34:31.424Z,1.58
2023-04-03T16:39:36.947Z,1.27
2023-04-03T16:44:41.341Z,1.20
2023-04-03T16:49:45.600Z,1.40
2023-04-03T16:54:50.435Z,1.92
2023-04-03T16:59:54.417Z,1.20
2023-04-03T17:04:57.968Z,1.20
2023-04-03T17:10:02.567Z,1.10
2023-04-03T17:15:06.963Z,1.23
2023-04-03T17:20:11.910Z,0.93
2023-04-03T17:25:17.289Z,1.20
2023-04-03T17:30:21.084Z,0.95
2023-04-03T17:35:24.949Z,1.70
2023-04-03T17:40:29.895Z,1.55
2023-04-03T17:45:33.873Z,1.65
2023-04-03T17:50:39.276Z,1.85
2023-04-03T17:55:43.967Z,2.00
2023-04-03T18:00:47.482Z,1.77
2023-04-03T18:05:54.973Z,1.88
2023-04-03T18:11:00.650Z,1.60
2023-04-03T18:16:04.668Z,1.60
2023-04-03T18:21:11.257Z,1.42
2023-04-03T18:26:19.825Z,1.00
2023-04-03T18:31:25.839Z,1.30
2023-04-03T18:36:30.267Z,1.13
2023-04-03T18:41:38.232Z,1.17
2023-04-03T18:46:41.899Z,1.20
2023-04-03T18:51:45.730Z,1.42
2023-04-03T18:56:50.605Z,1.25
2023-04-03T19:01:53.923Z,1.10
2023-04-03T19:06:57.715Z,1.27
2023-04-03T19:12:03.094Z,1.27
2023-04-03T19:17:08.156Z,0.73
2023-04-03T19:22:11.733Z,1.00
2023-04-03T19:27:17.116Z,1.33
2023-04-03T19:32:20.836Z,1.00
2023-04-03T19:37:25.398Z,1.25
2023-04-03T19:42:31.901Z,1.48
2023-04-03T19:47:38.568Z,1.60
2023-04-03T19:52:42.907Z,1.40
2023-04-03T19:57:48.000Z,1.30
2023-04-03T20:02:51.793Z,1.48
2023-04-03T20:07:56.444Z,1.25
2023-04-03T20:13:01.849Z,1.27
2023-04-03T20:18:05.784Z,0.98
2023-04-03T20:23:11.384Z,1.40
2023-04-03T20:33:21.671Z,1.00
2023-04-03T20:38:25.355Z,1.20
2023-04-03T20:43:30.199Z,1.10
2023-04-03T20:48:33.757Z,1.50
2023-04-03T20:53:37.930Z,0.93
2023-04-03T20:58:43.869Z,1.10
2023-04-03T21:03:47.940Z,1.55
2023-04-03T21:09:29.274Z,0.88
2023-04-03T21:15:10.297Z,1.13
2023-04-03T21:20:15.012Z,1.08
2023-04-03T21:25:18.620Z,1.23
2023-04-03T21:30:22.521Z,1.00
2023-04-03T21:35:27.306Z,1.10
2023-04-03T21:40:32.134Z,1.67
2023-04-03T21:45:35.685Z,23.50
2023-04-03T21:50:40.540Z,7.70
2023-04-03T21:55:44.331Z,15.30
2023-04-03T22:00:48.103Z,1.88
2023-04-03T22:05:53.869Z,1.10
2023-04-03T22:11:02.887Z,1.05
2023-04-03T22:16:07.042Z,0.98
2023-04-03T22:21:12.188Z,1.40
2023-04-03T22:26:15.997Z,1.30
2023-04-03T22:31:21.126Z,1.00
2023-04-03T22:36:26.456Z,1.45
2023-04-03T22:41:30.057Z,1.00
2023-04-03T22:46:33.595Z,1.15
2023-04-03T22:51:38.542Z,1.02
2023-04-03T22:56:42.176Z,1.30
2023-04-03T23:01:46.010Z,1.10
2023-04-03T23:06:50.824Z,1.10
2023-04-03T23:11:54.142Z,0.90
2023-04-03T23:16:57.884Z,1.10
2023-04-03T23:22:03.316Z,0.80
2023-04-03T23:27:07.011Z,1.00
2023-04-03T23:32:11.122Z,1.10
2023-04-03T23:37:16.237Z,1.02
2023-04-03T23:42:19.541Z,0.60
2023-04-03T23:47:23.309Z,1.10
2023-04-03T23:52:28.942Z,0.77
